sensor_id;sensor_type;location;lat;lon;timestamp;pressure;altitude;pressure_sealevel;temperature;humidity
49835;BME280;35729;52.090;13.162;2023-07-20T00:00:27;100496.22;;;16.86;72.39
49835;BME280;35729;52.090;13.162;2023-07-20T00:03:10;100498.09;;;16.84;73.10
49835;BME280;35729;52.090;13.162;2023-07-20T00:05:44;100496.38;;;16.83;72.38
49835;BME280;35729;52.090;13.162;2023-07-20T00:08:13;100488.50;;;16.81;72.46
49835;BME280;35729;52.090;13.162;2023-07-20T00:10:42;100494.81;;;16.78;72.51
49835;BME280;35729;52.090;13.162;2023-07-20T00:13:10;100495.75;;;16.77;72.73
49835;BME280;35729;52.090;13.162;2023-07-20T00:15:41;100491.56;;;16.73;72.85
49835;BME280;35729;52.090;13.162;2023-07-20T00:18:10;100487.19;;;16.72;73.02
49835;BME280;35729;52.090;13.162;2023-07-20T00:20:49;100488.13;;;16.71;72.87
49835;BME280;35729;52.090;13.162;2023-07-20T00:23:18;100494.34;;;16.70;72.96
49835;BME280;35729;52.090;13.162;2023-07-20T00:25:48;100489.03;;;16.70;73.02
49835;BME280;35729;52.090;13.162;2023-07-20T00:28:16;100481.09;;;16.70;72.91
49835;BME280;35729;52.090;13.162;2023-07-20T00:30:44;100484.63;;;16.71;72.70
49835;BME280;35729;52.090;13.162;2023-07-20T00:33:16;100482.91;;;16.70;72.84
49835;BME280;35729;52.090;13.162;2023-07-20T00:35:45;100484.75;;;16.68;72.83
49835;BME280;35729;52.090;13.162;2023-07-20T00:38:16;100491.06;;;16.65;73.07
49835;BME280;35729;52.090;13.162;2023-07-20T00:40:44;100492.09;;;16.63;73.22
49835;BME280;35729;52.090;13.162;2023-07-20T00:43:13;100491.38;;;16.59;73.08
49835;BME280;35729;52.090;13.162;2023-07-20T00:45:42;100498.56;;;16.57;73.21
49835;BME280;35729;52.090;13.162;2023-07-20T00:48:12;100500.44;;;16.55;73.46
49835;BME280;35729;52.090;13.162;2023-07-20T00:50:41;100502.25;;;16.54;73.44
49835;BME280;35729;52.090;13.162;2023-07-20T00:53:10;100499.72;;;16.51;73.46
49835;BME280;35729;52.090;13.162;2023-07-20T00:55:41;100497.25;;;16.48;74.03
49835;BME280;35729;52.090;13.162;2023-07-20T00:58:09;100491.16;;;16.46;73.48
49835;BME280;35729;52.090;13.162;2023-07-20T01:00:38;100493.88;;;16.44;73.84
49835;BME280;35729;52.090;13.162;2023-07-20T01:03:06;100495.75;;;16.42;74.01
49835;BME280;35729;52.090;13.162;2023-07-20T01:05:40;100494.03;;;16.41;74.26
49835;BME280;35729;52.090;13.162;2023-07-20T01:08:15;100485.31;;;16.39;74.08
49835;BME280;35729;52.090;13.162;2023-07-20T01:10:53;100487.97;;;16.39;74.18
49835;BME280;35729;52.090;13.162;2023-07-20T01:13:25;100488.91;;;16.38;74.06
49835;BME280;35729;52.090;13.162;2023-07-20T01:15:56;100483.59;;;16.38;74.09
49835;BME280;35729;52.090;13.162;2023-07-20T01:18:26;100490.72;;;16.38;74.41
49835;BME280;35729;52.090;13.162;2023-07-20T01:20:59;100493.34;;;16.38;74.61
49835;BME280;35729;52.090;13.162;2023-07-20T01:26:58;100484.63;;;16.36;74.58
49835;BME280;35729;52.090;13.162;2023-07-20T01:29:40;100497.78;;;16.37;74.38
49835;BME280;35729;52.090;13.162;2023-07-20T01:32:16;100496.06;;;16.36;74.72
49835;BME280;35729;52.090;13.162;2023-07-20T01:34:45;100498.78;;;16.35;74.32
49835;BME280;35729;52.090;13.162;2023-07-20T01:37:17;100494.38;;;16.35;74.37
49835;BME280;35729;52.090;13.162;2023-07-20T01:39:45;100491.75;;;16.34;74.60
49835;BME280;35729;52.090;13.162;2023-07-20T01:42:14;100489.13;;;16.34;74.55
49835;BME280;35729;52.090;13.162;2023-07-20T01:44:42;100480.34;;;16.33;74.53
49835;BME280;35729;52.090;13.162;2023-07-20T01:47:13;100488.28;;;16.33;74.47
49835;BME280;35729;52.090;13.162;2023-07-20T01:49:42;100483.81;;;16.34;74.53
49835;BME280;35729;52.090;13.162;2023-07-20T01:52:10;100475.88;;;16.34;74.61
49835;BME280;35729;52.090;13.162;2023-07-20T01:54:39;100480.25;;;16.35;74.80
49835;BME280;35729;52.090;13.162;2023-07-20T01:57:07;100483.81;;;16.34;74.60
49835;BME280;35729;52.090;13.162;2023-07-20T01:59:36;100489.22;;;16.32;74.65
49835;BME280;35729;52.090;13.162;2023-07-20T02:02:04;100482.09;;;16.33;74.94
49835;BME280;35729;52.090;13.162;2023-07-20T02:04:35;100475.13;;;16.32;74.63
49835;BME280;35729;52.090;13.162;2023-07-20T02:07:04;100471.59;;;16.31;74.83
49835;BME280;35729;52.090;13.162;2023-07-20T02:09:32;100476.06;;;16.31;74.69
49835;BME280;35729;52.090;13.162;2023-07-20T02:12:01;100477.81;;;16.30;75.31
49835;BME280;35729;52.090;13.162;2023-07-20T02:14:29;100484.06;;;16.29;75.22
49835;BME280;35729;52.090;13.162;2023-07-20T02:16:58;100486.72;;;16.29;75.31
49835;BME280;35729;52.090;13.162;2023-07-20T02:19:28;100485.13;;;16.25;75.03
49835;BME280;35729;52.090;13.162;2023-07-20T02:22:06;100488.56;;;16.27;75.12
49835;BME280;35729;52.090;13.162;2023-07-20T02:24:42;100494.81;;;16.26;75.20
49835;BME280;35729;52.090;13.162;2023-07-20T02:27:10;100498.47;;;16.23;75.38
49835;BME280;35729;52.090;13.162;2023-07-20T02:29:40;100502.03;;;16.22;75.36
49835;BME280;35729;52.090;13.162;2023-07-20T02:32:09;100500.41;;;16.20;75.39
49835;BME280;35729;52.090;13.162;2023-07-20T02:34:38;100503.13;;;16.18;75.75
49835;BME280;35729;52.090;13.162;2023-07-20T02:37:09;100511.06;;;16.18;75.63
49835;BME280;35729;52.090;13.162;2023-07-20T02:39:38;100506.69;;;16.17;75.64
49835;BME280;35729;52.090;13.162;2023-07-20T02:42:06;100502.31;;;16.16;76.17
49835;BME280;35729;52.090;13.162;2023-07-20T02:44:35;100509.44;;;16.16;76.01
49835;BME280;35729;52.090;13.162;2023-07-20T02:47:04;100517.44;;;16.14;76.58
49835;BME280;35729;52.090;13.162;2023-07-20T02:49:32;100511.44;;;16.10;77.20
49835;BME280;35729;52.090;13.162;2023-07-20T02:52:01;100514.16;;;16.09;77.52
49835;BME280;35729;52.090;13.162;2023-07-20T02:54:32;100519.59;;;16.06;78.06
49835;BME280;35729;52.090;13.162;2023-07-20T02:57:00;100523.16;;;16.05;78.38
49835;BME280;35729;52.090;13.162;2023-07-20T02:59:29;100513.75;;;15.99;78.93
49835;BME280;35729;52.090;13.162;2023-07-20T03:01:57;100525.53;;;15.92;79.43
49835;BME280;35729;52.090;13.162;2023-07-20T03:04:26;100532.09;;;15.85;81.03
49835;BME280;35729;52.090;13.162;2023-07-20T03:06:55;100536.63;;;15.81;80.43
49835;BME280;35729;52.090;13.162;2023-07-20T03:09:24;100537.75;;;15.75;81.02
49835;BME280;35729;52.090;13.162;2023-07-20T03:11:55;100544.91;;;15.73;82.67
49835;BME280;35729;52.090;13.162;2023-07-20T03:14:24;100546.75;;;15.71;81.87
49835;BME280;35729;52.090;13.162;2023-07-20T03:16:52;100546.75;;;15.71;81.28
49835;BME280;35729;52.090;13.162;2023-07-20T03:19:20;100554.69;;;15.71;81.41
49835;BME280;35729;52.090;13.162;2023-07-20T03:21:49;100554.69;;;15.71;81.80
49835;BME280;35729;52.090;13.162;2023-07-20T03:24:17;100548.59;;;15.69;81.99
49835;BME280;35729;52.090;13.162;2023-07-20T03:26:46;100560.09;;;15.68;82.34
49835;BME280;35729;52.090;13.162;2023-07-20T03:29:18;100562.06;;;15.64;81.62
49835;BME280;35729;52.090;13.162;2023-07-20T03:31:47;100562.13;;;15.63;81.25
49835;BME280;35729;52.090;13.162;2023-07-20T03:34:16;100559.47;;;15.63;81.35
49835;BME280;35729;52.090;13.162;2023-07-20T03:36:44;100560.47;;;15.60;81.91
49835;BME280;35729;52.090;13.162;2023-07-20T03:39:13;100567.69;;;15.57;81.44
49835;BME280;35729;52.090;13.162;2023-07-20T03:41:41;100562.69;;;15.51;81.47
49835;BME280;35729;52.090;13.162;2023-07-20T03:44:09;100565.47;;;15.47;81.06
49835;BME280;35729;52.090;13.162;2023-07-20T03:46:41;100562.97;;;15.44;80.94
49835;BME280;35729;52.090;13.162;2023-07-20T03:49:09;100564.81;;;15.42;80.98
49835;BME280;35729;52.090;13.162;2023-07-20T03:51:37;100560.44;;;15.41;80.69
49835;BME280;35729;52.090;13.162;2023-07-20T03:54:06;100556.03;;;15.42;80.50
49835;BME280;35729;52.090;13.162;2023-07-20T03:56:34;100558.59;;;15.43;80.26
49835;BME280;35729;52.090;13.162;2023-07-20T03:59:03;100558.59;;;15.43;80.39
49835;BME280;35729;52.090;13.162;2023-07-20T04:01:31;100551.44;;;15.45;80.26
49835;BME280;35729;52.090;13.162;2023-07-20T04:04:07;100556.59;;;15.48;79.80
49835;BME280;35729;52.090;13.162;2023-07-20T04:06:36;100549.47;;;15.51;80.05
49835;BME280;35729;52.090;13.162;2023-07-20T04:09:04;100557.25;;;15.54;80.04
49835;BME280;35729;52.090;13.162;2023-07-20T04:11:33;100560.75;;;15.54;80.33
49835;BME280;35729;52.090;13.162;2023-07-20T04:14:01;100566.03;;;15.54;80.36
49835;BME280;35729;52.090;13.162;2023-07-20T04:16:30;100558.91;;;15.56;80.14
49835;BME280;35729;52.090;13.162;2023-07-20T04:18:58;100553.69;;;15.55;80.44
49835;BME280;35729;52.090;13.162;2023-07-20T04:21:29;100560.53;;;15.59;80.42
49835;BME280;35729;52.090;13.162;2023-07-20T04:23:58;100563.06;;;15.62;80.45
49835;BME280;35729;52.090;13.162;2023-07-20T04:26:26;100563.00;;;15.63;80.62
49835;BME280;35729;52.090;13.162;2023-07-20T04:28:55;100566.47;;;15.64;80.56
49835;BME280;35729;52.090;13.162;2023-07-20T04:31:24;100567.41;;;15.63;81.04
49835;BME280;35729;52.090;13.162;2023-07-20T04:33:53;100563.06;;;15.62;80.82
49835;BME280;35729;52.090;13.162;2023-07-20T04:36:21;100565.72;;;15.62;81.01
49835;BME280;35729;52.090;13.162;2023-07-20T04:38:52;100568.34;;;15.62;81.00
49835;BME280;35729;52.090;13.162;2023-07-20T04:41:21;100570.91;;;15.63;81.16
49835;BME280;35729;52.090;13.162;2023-07-20T04:43:50;100572.66;;;15.64;81.20
49835;BME280;35729;52.090;13.162;2023-07-20T04:46:19;100572.66;;;15.64;80.82
49835;BME280;35729;52.090;13.162;2023-07-20T04:48:47;100568.91;;;15.69;80.93
49835;BME280;35729;52.090;13.162;2023-07-20T04:51:16;100574.94;;;15.72;81.08
49835;BME280;35729;52.090;13.162;2023-07-20T04:53:46;100563.44;;;15.73;81.28
49835;BME280;35729;52.090;13.162;2023-07-20T04:56:17;100575.69;;;15.74;80.97
49835;BME280;35729;52.090;13.162;2023-07-20T04:58:48;100567.00;;;15.72;80.95
49835;BME280;35729;52.090;13.162;2023-07-20T05:01:17;100567.75;;;15.74;81.14
49835;BME280;35729;52.090;13.162;2023-07-20T05:03:45;100563.13;;;15.79;80.98
49835;BME280;35729;52.090;13.162;2023-07-20T05:06:14;100567.44;;;15.82;80.82
49835;BME280;35729;52.090;13.162;2023-07-20T05:08:43;100565.50;;;15.86;80.70
49835;BME280;35729;52.090;13.162;2023-07-20T05:11:11;100568.75;;;15.92;80.52
49835;BME280;35729;52.090;13.162;2023-07-20T05:13:43;100577.16;;;16.01;80.49
49835;BME280;35729;52.090;13.162;2023-07-20T05:16:11;100582.19;;;16.07;80.34
49835;BME280;35729;52.090;13.162;2023-07-20T05:18:39;100567.84;;;16.11;80.26
49835;BME280;35729;52.090;13.162;2023-07-20T05:21:08;100575.50;;;16.17;79.68
49835;BME280;35729;52.090;13.162;2023-07-20T05:23:36;100567.50;;;16.19;79.55
49835;BME280;35729;52.090;13.162;2023-07-20T05:26:05;100575.31;;;16.22;79.63
49835;BME280;35729;52.090;13.162;2023-07-20T05:28:34;100576.94;;;16.24;79.38
49835;BME280;35729;52.090;13.162;2023-07-20T05:31:05;100588.44;;;16.23;79.36
49835;BME280;35729;52.090;13.162;2023-07-20T05:33:34;100588.53;;;16.22;79.27
49835;BME280;35729;52.090;13.162;2023-07-20T05:36:03;100581.50;;;16.21;79.38
49835;BME280;35729;52.090;13.162;2023-07-20T05:38:32;100586.09;;;16.17;79.57
49835;BME280;35729;52.090;13.162;2023-07-20T05:41:00;100586.19;;;16.16;79.25
49835;BME280;35729;52.090;13.162;2023-07-20T05:43:30;100588.91;;;16.14;79.38
49835;BME280;35729;52.090;13.162;2023-07-20T05:45:58;100589.91;;;16.11;79.41
49835;BME280;35729;52.090;13.162;2023-07-20T05:48:29;100585.63;;;16.09;79.26
49835;BME280;35729;52.090;13.162;2023-07-20T05:50:58;100585.53;;;16.10;79.53
49835;BME280;35729;52.090;13.162;2023-07-20T05:53:26;100595.19;;;16.11;79.36
49835;BME280;35729;52.090;13.162;2023-07-20T05:55:55;100594.28;;;16.12;79.30
49835;BME280;35729;52.090;13.162;2023-07-20T05:58:23;100598.69;;;16.12;79.17
49835;BME280;35729;52.090;13.162;2023-07-20T06:00:53;100598.78;;;16.10;79.36
49835;BME280;35729;52.090;13.162;2023-07-20T06:03:22;100592.63;;;16.10;78.94
49835;BME280;35729;52.090;13.162;2023-07-20T06:05:58;100599.56;;;16.12;79.05
49835;BME280;35729;52.090;13.162;2023-07-20T06:08:27;100605.53;;;16.16;79.29
49835;BME280;35729;52.090;13.162;2023-07-20T06:10:55;100618.09;;;16.12;78.78
49835;BME280;35729;52.090;13.162;2023-07-20T06:13:24;100609.44;;;16.09;78.78
49835;BME280;35729;52.090;13.162;2023-07-20T06:15:52;100602.63;;;16.03;78.91
49835;BME280;35729;52.090;13.162;2023-07-20T06:18:22;100607.84;;;16.05;78.84
49835;BME280;35729;52.090;13.162;2023-07-20T06:20:54;100613.00;;;16.08;79.05
49835;BME280;35729;52.090;13.162;2023-07-20T06:23:22;100609.28;;;16.12;78.56
49835;BME280;35729;52.090;13.162;2023-07-20T06:25:51;100612.47;;;16.19;77.78
49835;BME280;35729;52.090;13.162;2023-07-20T06:28:19;100611.28;;;16.26;77.51
49835;BME280;35729;52.090;13.162;2023-07-20T06:30:47;100607.25;;;16.36;76.97
49835;BME280;35729;52.090;13.162;2023-07-20T06:33:17;100623.56;;;16.46;76.44
49835;BME280;35729;52.090;13.162;2023-07-20T06:35:45;100622.47;;;16.50;75.44
49835;BME280;35729;52.090;13.162;2023-07-20T06:38:16;100623.41;;;16.49;75.12
49835;BME280;35729;52.090;13.162;2023-07-20T06:40:46;100618.41;;;16.43;75.09
49835;BME280;35729;52.090;13.162;2023-07-20T06:43:14;100622.84;;;16.42;75.27
49835;BME280;35729;52.090;13.162;2023-07-20T06:45:43;100619.44;;;16.40;75.08
49835;BME280;35729;52.090;13.162;2023-07-20T06:48:18;100618.63;;;16.38;75.04
49835;BME280;35729;52.090;13.162;2023-07-20T06:50:46;100615.06;;;16.39;74.87
49835;BME280;35729;52.090;13.162;2023-07-20T06:53:18;100610.47;;;16.43;74.84
49835;BME280;35729;52.090;13.162;2023-07-20T06:55:46;100615.22;;;16.54;74.46
49835;BME280;35729;52.090;13.162;2023-07-20T06:58:15;100616.56;;;16.63;74.19
49835;BME280;35729;52.090;13.162;2023-07-20T07:00:44;100621.75;;;16.66;73.18
49835;BME280;35729;52.090;13.162;2023-07-20T07:03:13;100619.00;;;16.67;72.71
49835;BME280;35729;52.090;13.162;2023-07-20T07:05:41;100629.53;;;16.69;72.78
49835;BME280;35729;52.090;13.162;2023-07-20T07:08:10;100620.78;;;16.67;72.13
49835;BME280;35729;52.090;13.162;2023-07-20T07:10:41;100618.94;;;16.69;72.04
49835;BME280;35729;52.090;13.162;2023-07-20T07:13:09;100622.28;;;16.72;71.81
49835;BME280;35729;52.090;13.162;2023-07-20T07:15:38;100620.34;;;16.76;71.75
49835;BME280;35729;52.090;13.162;2023-07-20T07:18:06;100621.97;;;16.78;71.50
49835;BME280;35729;52.090;13.162;2023-07-20T07:20:35;100622.59;;;16.84;71.09
49835;BME280;35729;52.090;13.162;2023-07-20T07:23:03;100619.66;;;16.90;70.86
49835;BME280;35729;52.090;13.162;2023-07-20T07:25:32;100615.72;;;16.99;70.26
49835;BME280;35729;52.090;13.162;2023-07-20T07:28:03;100620.53;;;17.08;70.05
49835;BME280;35729;52.090;13.162;2023-07-20T07:30:32;100635.28;;;17.14;69.18
49835;BME280;35729;52.090;13.162;2023-07-20T07:33:00;100635.50;;;17.09;69.36
49835;BME280;35729;52.090;13.162;2023-07-20T07:35:29;100637.28;;;17.08;69.43
49835;BME280;35729;52.090;13.162;2023-07-20T07:37:58;100646.19;;;17.07;68.89
49835;BME280;35729;52.090;13.162;2023-07-20T07:40:26;100650.63;;;17.07;69.00
49835;BME280;35729;52.090;13.162;2023-07-20T07:42:55;100650.50;;;17.10;69.03
49835;BME280;35729;52.090;13.162;2023-07-20T07:45:26;100653.91;;;17.12;68.64
49835;BME280;35729;52.090;13.162;2023-07-20T07:47:54;100654.59;;;17.16;69.08
49835;BME280;35729;52.090;13.162;2023-07-20T07:50:29;100644.88;;;17.16;67.95
49835;BME280;35729;52.090;13.162;2023-07-20T07:52:57;100652.56;;;17.21;68.26
49835;BME280;35729;52.090;13.162;2023-07-20T07:55:26;100645.19;;;17.28;67.92
49835;BME280;35729;52.090;13.162;2023-07-20T07:57:54;100647.44;;;17.35;67.36
49835;BME280;35729;52.090;13.162;2023-07-20T08:00:26;100648.91;;;17.41;67.24
49835;BME280;35729;52.090;13.162;2023-07-20T08:02:54;100654.06;;;17.44;66.42
49835;BME280;35729;52.090;13.162;2023-07-20T08:05:23;100639.94;;;17.43;66.62
49835;BME280;35729;52.090;13.162;2023-07-20T08:07:51;100644.31;;;17.45;66.35
49835;BME280;35729;52.090;13.162;2023-07-20T08:10:22;100646.88;;;17.46;65.71
49835;BME280;35729;52.090;13.162;2023-07-20T08:12:50;100652.03;;;17.49;65.41
49835;BME280;35729;52.090;13.162;2023-07-20T08:15:19;100663.16;;;17.56;64.48
49835;BME280;35729;52.090;13.162;2023-07-20T08:17:50;100651.38;;;17.62;63.33
49835;BME280;35729;52.090;13.162;2023-07-20T08:20:19;100652.75;;;17.69;63.61
49835;BME280;35729;52.090;13.162;2023-07-20T08:22:51;100654.66;;;17.83;63.48
49835;BME280;35729;52.090;13.162;2023-07-20T08:25:20;100652.38;;;17.92;62.72
49835;BME280;35729;52.090;13.162;2023-07-20T08:27:49;100644.28;;;17.96;61.69
49835;BME280;35729;52.090;13.162;2023-07-20T08:30:17;100658.25;;;17.99;60.77
49835;BME280;35729;52.090;13.162;2023-07-20T08:32:46;100667.09;;;18.00;60.50
49835;BME280;35729;52.090;13.162;2023-07-20T08:35:17;100657.31;;;18.00;60.65
49835;BME280;35729;52.090;13.162;2023-07-20T08:37:45;100664.16;;;18.04;60.93
49835;BME280;35729;52.090;13.162;2023-07-20T08:40:15;100661.25;;;18.09;60.84
49835;BME280;35729;52.090;13.162;2023-07-20T08:42:43;100663.50;;;18.17;61.09
49835;BME280;35729;52.090;13.162;2023-07-20T08:45:13;100670.00;;;18.27;60.81
49835;BME280;35729;52.090;13.162;2023-07-20T08:47:45;100668.63;;;18.36;60.82
49835;BME280;35729;52.090;13.162;2023-07-20T08:50:19;100666.59;;;18.41;60.27
49835;BME280;35729;52.090;13.162;2023-07-20T08:52:48;100667.13;;;18.48;60.26
49835;BME280;35729;52.090;13.162;2023-07-20T08:55:20;100668.47;;;18.55;60.47
49835;BME280;35729;52.090;13.162;2023-07-20T08:57:50;100673.38;;;18.63;60.17
49835;BME280;35729;52.090;13.162;2023-07-20T09:00:22;100674.13;;;18.65;59.54
49835;BME280;35729;52.090;13.162;2023-07-20T09:02:52;100668.06;;;18.63;58.70
49835;BME280;35729;52.090;13.162;2023-07-20T09:05:24;100656.66;;;18.61;59.04
49835;BME280;35729;52.090;13.162;2023-07-20T09:07:52;100657.16;;;18.67;59.26
49835;BME280;35729;52.090;13.162;2023-07-20T09:10:21;100658.06;;;18.82;58.71
49835;BME280;35729;52.090;13.162;2023-07-20T09:12:50;100656.63;;;18.93;57.79
49835;BME280;35729;52.090;13.162;2023-07-20T09:15:20;100664.13;;;19.00;57.53
49835;BME280;35729;52.090;13.162;2023-07-20T09:17:49;100666.19;;;19.11;57.26
49835;BME280;35729;52.090;13.162;2023-07-20T09:20:20;100668.28;;;19.20;56.70
49835;BME280;35729;52.090;13.162;2023-07-20T09:22:51;100664.44;;;19.26;56.48
49835;BME280;35729;52.090;13.162;2023-07-20T09:25:20;100659.50;;;19.34;56.11
49835;BME280;35729;52.090;13.162;2023-07-20T09:27:50;100652.84;;;19.42;56.05
49835;BME280;35729;52.090;13.162;2023-07-20T09:30:25;100662.19;;;19.49;56.09
49835;BME280;35729;52.090;13.162;2023-07-20T09:32:53;100663.50;;;19.56;55.84
49835;BME280;35729;52.090;13.162;2023-07-20T09:38:35;100670.38;;;19.60;55.34
49835;BME280;35729;52.090;13.162;2023-07-20T09:41:05;100642.63;;;19.64;55.53
49835;BME280;35729;52.090;13.162;2023-07-20T09:43:34;100647.56;;;19.70;54.49
49835;BME280;35729;52.090;13.162;2023-07-20T09:46:02;100655.19;;;19.77;53.28
49835;BME280;35729;52.090;13.162;2023-07-20T09:48:31;100660.91;;;19.85;53.45
49835;BME280;35729;52.090;13.162;2023-07-20T09:50:59;100662.22;;;19.92;53.75
49835;BME280;35729;52.090;13.162;2023-07-20T09:53:30;100652.72;;;20.02;52.44
49835;BME280;35729;52.090;13.162;2023-07-20T09:56:03;100650.44;;;20.11;52.49
49835;BME280;35729;52.090;13.162;2023-07-20T09:58:32;100656.44;;;20.14;51.60
49835;BME280;35729;52.090;13.162;2023-07-20T10:01:03;100647.94;;;20.08;52.04
49835;BME280;35729;52.090;13.162;2023-07-20T10:03:37;100642.63;;;20.08;51.92
49835;BME280;35729;52.090;13.162;2023-07-20T10:06:08;100641.47;;;20.12;52.24
49835;BME280;35729;52.090;13.162;2023-07-20T10:08:39;100650.22;;;20.14;51.97
49835;BME280;35729;52.090;13.162;2023-07-20T10:11:12;100639.41;;;20.17;52.07
49835;BME280;35729;52.090;13.162;2023-07-20T10:13:44;100648.69;;;20.24;52.54
49835;BME280;35729;52.090;13.162;2023-07-20T10:16:20;100649.44;;;20.26;51.02
49835;BME280;35729;52.090;13.162;2023-07-20T10:18:54;100637.84;;;20.27;51.08
49835;BME280;35729;52.090;13.162;2023-07-20T10:21:24;100652.13;;;20.26;50.25
49835;BME280;35729;52.090;13.162;2023-07-20T10:23:54;100639.47;;;20.30;50.78
49835;BME280;35729;52.090;13.162;2023-07-20T10:26:26;100641.50;;;20.39;50.65
49835;BME280;35729;52.090;13.162;2023-07-20T10:28:55;100648.91;;;20.48;50.83
49835;BME280;35729;52.090;13.162;2023-07-20T10:31:25;100641.56;;;20.52;50.66
49835;BME280;35729;52.090;13.162;2023-07-20T10:33:55;100651.00;;;20.58;50.43
49835;BME280;35729;52.090;13.162;2023-07-20T10:36:25;100645.56;;;20.59;49.96
49835;BME280;35729;52.090;13.162;2023-07-20T10:38:55;100651.31;;;20.66;50.58
49835;BME280;35729;52.090;13.162;2023-07-20T10:41:34;100637.13;;;20.80;49.87
49835;BME280;35729;52.090;13.162;2023-07-20T10:44:04;100640.97;;;20.89;49.64
49835;BME280;35729;52.090;13.162;2023-07-20T10:46:43;100650.03;;;20.86;48.52
49835;BME280;35729;52.090;13.162;2023-07-20T10:49:13;100643.75;;;20.87;49.38
49835;BME280;35729;52.090;13.162;2023-07-20T10:51:44;100642.59;;;20.91;49.45
49835;BME280;35729;52.090;13.162;2023-07-20T10:54:48;100646.00;;;20.93;48.55
49835;BME280;35729;52.090;13.162;2023-07-20T11:00:10;100639.53;;;21.10;47.67
49835;BME280;35729;52.090;13.162;2023-07-20T11:02:47;100651.91;;;21.11;47.60
49835;BME280;35729;52.090;13.162;2023-07-20T11:05:37;100652.03;;;21.10;47.54
49835;BME280;35729;52.090;13.162;2023-07-20T11:08:09;100646.38;;;21.02;48.82
49835;BME280;35729;52.090;13.162;2023-07-20T11:10:38;100661.78;;;20.96;48.84
49835;BME280;35729;52.090;13.162;2023-07-20T11:13:17;100653.25;;;20.91;48.68
49835;BME280;35729;52.090;13.162;2023-07-20T11:16:02;100665.63;;;20.92;48.51
49835;BME280;35729;52.090;13.162;2023-07-20T11:18:35;100663.84;;;20.93;48.67
49835;BME280;35729;52.090;13.162;2023-07-20T11:21:09;100665.53;;;20.94;49.06
49835;BME280;35729;52.090;13.162;2023-07-20T11:23:39;100662.84;;;20.94;49.08
49835;BME280;35729;52.090;13.162;2023-07-20T11:26:08;100658.69;;;20.90;48.94
49835;BME280;35729;52.090;13.162;2023-07-20T11:28:37;100663.38;;;20.86;49.18
49835;BME280;35729;52.090;13.162;2023-07-20T11:31:08;100659.97;;;20.84;48.79
49835;BME280;35729;52.090;13.162;2023-07-20T11:33:37;100659.97;;;20.84;48.78
49835;BME280;35729;52.090;13.162;2023-07-20T11:36:06;100662.31;;;20.89;48.96
49835;BME280;35729;52.090;13.162;2023-07-20T11:38:36;100653.06;;;20.94;48.94
49835;BME280;35729;52.090;13.162;2023-07-20T11:41:04;100650.94;;;20.99;48.53
49835;BME280;35729;52.090;13.162;2023-07-20T11:43:33;100650.53;;;21.06;48.58
49835;BME280;35729;52.090;13.162;2023-07-20T11:46:04;100647.78;;;21.20;48.25
49835;BME280;35729;52.090;13.162;2023-07-20T11:48:35;100645.22;;;21.31;47.82
49835;BME280;35729;52.090;13.162;2023-07-20T11:51:05;100650.25;;;21.36;48.09
49835;BME280;35729;52.090;13.162;2023-07-20T11:53:33;100639.34;;;21.39;47.81
49835;BME280;35729;52.090;13.162;2023-07-20T11:56:02;100637.88;;;21.48;47.80
49835;BME280;35729;52.090;13.162;2023-07-20T11:58:32;100641.72;;;21.44;47.38
49835;BME280;35729;52.090;13.162;2023-07-20T12:01:00;100656.44;;;21.37;47.59
49835;BME280;35729;52.090;13.162;2023-07-20T12:03:29;100655.16;;;21.29;47.32
49835;BME280;35729;52.090;13.162;2023-07-20T12:06:08;100662.41;;;21.27;47.41
49835;BME280;35729;52.090;13.162;2023-07-20T12:08:42;100649.81;;;21.29;47.28
49835;BME280;35729;52.090;13.162;2023-07-20T12:11:10;100658.44;;;21.20;47.70
49835;BME280;35729;52.090;13.162;2023-07-20T12:13:42;100658.31;;;21.22;47.91
49835;BME280;35729;52.090;13.162;2023-07-20T12:16:13;100653.56;;;21.27;47.97
49835;BME280;35729;52.090;13.162;2023-07-20T12:18:42;100640.53;;;21.35;47.97
49835;BME280;35729;52.090;13.162;2023-07-20T12:21:13;100655.91;;;21.44;47.26
49835;BME280;35729;52.090;13.162;2023-07-20T12:23:42;100641.59;;;21.45;47.17
49835;BME280;35729;52.090;13.162;2023-07-20T12:26:11;100650.06;;;21.52;47.23
49835;BME280;35729;52.090;13.162;2023-07-20T12:28:49;100658.41;;;21.60;46.97
49835;BME280;35729;52.090;13.162;2023-07-20T12:31:18;100650.72;;;21.69;46.60
49835;BME280;35729;52.090;13.162;2023-07-20T12:33:46;100650.38;;;21.73;46.84
49835;BME280;35729;52.090;13.162;2023-07-20T12:36:15;100648.91;;;21.69;46.25
49835;BME280;35729;52.090;13.162;2023-07-20T12:38:44;100652.75;;;21.65;46.83
49835;BME280;35729;52.090;13.162;2023-07-20T12:41:13;100645.81;;;21.62;46.60
49835;BME280;35729;52.090;13.162;2023-07-20T12:43:44;100644.28;;;21.58;46.79
49835;BME280;35729;52.090;13.162;2023-07-20T12:46:13;100652.63;;;21.54;46.47
49835;BME280;35729;52.090;13.162;2023-07-20T12:48:42;100650.13;;;21.51;46.23
49835;BME280;35729;52.090;13.162;2023-07-20T12:51:12;100653.34;;;21.43;46.28
49835;BME280;35729;52.090;13.162;2023-07-20T12:53:43;100655.16;;;21.29;46.36
49835;BME280;35729;52.090;13.162;2023-07-20T12:56:12;100654.81;;;21.21;47.07
49835;BME280;35729;52.090;13.162;2023-07-20T12:58:40;100666.97;;;21.12;47.13
49835;BME280;35729;52.090;13.162;2023-07-20T13:01:09;100663.00;;;21.05;47.54
49835;BME280;35729;52.090;13.162;2023-07-20T13:03:37;100662.38;;;21.02;47.48